createdAt,value
2018-09-09T00:00:16.641Z,3.73
2018-09-09T00:02:46.370Z,4.27
2018-09-09T00:05:16.160Z,3.67
2018-09-09T00:07:45.638Z,4.20
2018-09-09T00:10:15.391Z,4.20
2018-09-09T00:12:44.947Z,3.43
2018-09-09T00:15:15.106Z,4.50
2018-09-09T00:17:44.511Z,5.83
2018-09-09T00:20:13.947Z,3.83
2018-09-09T00:22:45.563Z,4.57
2018-09-09T00:25:15.550Z,4.97
2018-09-09T00:27:45.487Z,4.70
2018-09-09T00:30:15.389Z,4.40
2018-09-09T00:35:44.234Z,4.67
2018-09-09T00:38:14.079Z,4.07
2018-09-09T00:40:43.781Z,5.00
2018-09-09T00:43:13.676Z,4.13
2018-09-09T00:45:43.249Z,4.30
2018-09-09T00:48:13.164Z,5.03
2018-09-09T00:50:48.267Z,4.83
2018-09-09T00:53:23.308Z,5.17
2018-09-09T00:55:52.720Z,5.10
2018-09-09T00:58:22.640Z,4.73
2018-09-09T01:00:57.813Z,5.03
2018-09-09T01:03:27.710Z,5.37
2018-09-09T01:05:57.583Z,4.57
2018-09-09T01:08:27.744Z,4.93
2018-09-09T01:10:57.690Z,4.80
2018-09-09T01:13:28.008Z,4.80
2018-09-09T01:15:58.086Z,5.30
2018-09-09T01:18:27.569Z,4.53
2018-09-09T01:20:57.105Z,5.10
2018-09-09T01:23:26.793Z,4.60
2018-09-09T01:26:00.036Z,5.10
2018-09-09T01:28:30.310Z,4.70
2018-09-09T01:31:00.261Z,5.27
2018-09-09T01:33:30.399Z,4.73
2018-09-09T01:36:00.256Z,4.70
2018-09-09T01:38:29.949Z,4.87
2018-09-09T01:40:59.638Z,3.93
2018-09-09T01:43:29.217Z,5.00
2018-09-09T01:45:58.768Z,3.73
2018-09-09T01:48:28.505Z,4.33
2018-09-09T01:50:58.323Z,3.93
2018-09-09T01:53:28.264Z,4.37
2018-09-09T01:55:57.858Z,4.00
2018-09-09T01:58:27.477Z,4.30
2018-09-09T02:00:57.086Z,4.17
2018-09-09T02:03:26.764Z,4.83
2018-09-09T02:05:56.519Z,4.77
2018-09-09T02:08:29.936Z,4.50
2018-09-09T02:11:01.235Z,4.73
2018-09-09T02:13:32.570Z,4.50
2018-09-09T02:16:02.397Z,4.00
2018-09-09T02:18:32.422Z,4.50
2018-09-09T02:21:02.150Z,4.13
2018-09-09T02:23:31.663Z,3.70
2018-09-09T02:26:01.627Z,4.17
2018-09-09T02:28:34.225Z,4.07
2018-09-09T02:31:04.302Z,4.27
2018-09-09T02:33:33.931Z,4.83
2018-09-09T02:36:03.398Z,4.03
2018-09-09T02:38:32.988Z,4.90
2018-09-09T02:41:02.519Z,4.93
2018-09-09T02:43:32.103Z,4.10
2018-09-09T02:46:03.253Z,5.07
2018-09-09T02:48:34.199Z,4.63
2018-09-09T02:51:03.792Z,4.67
2018-09-09T02:53:33.477Z,4.63
2018-09-09T02:56:07.709Z,5.23
2018-09-09T02:58:37.625Z,3.70
2018-09-09T03:01:07.683Z,5.07
2018-09-09T03:03:37.708Z,4.80
2018-09-09T03:06:07.462Z,4.73
2018-09-09T03:08:37.453Z,4.30
2018-09-09T03:11:13.936Z,5.03
2018-09-09T03:13:46.555Z,5.20
2018-09-09T03:16:17.783Z,5.53
2018-09-09T03:18:47.833Z,6.10
2018-09-09T03:21:17.770Z,5.67
2018-09-09T03:23:47.424Z,5.90
2018-09-09T03:26:16.937Z,5.97
2018-09-09T03:28:46.756Z,7.27
2018-09-09T03:31:16.275Z,5.60
2018-09-09T03:33:46.875Z,7.10
2018-09-09T03:36:16.720Z,6.77
2018-09-09T03:38:46.590Z,7.80
2018-09-09T03:41:16.469Z,7.90
2018-09-09T03:43:47.201Z,7.83
2018-09-09T03:46:16.698Z,9.03
2018-09-09T03:48:46.305Z,7.97
2018-09-09T03:51:16.612Z,8.50
2018-09-09T03:53:45.988Z,7.87
2018-09-09T03:56:15.849Z,5.13
2018-09-09T03:58:45.775Z,7.87
2018-09-09T04:01:15.265Z,9.00
2018-09-09T04:03:45.495Z,7.80
2018-09-09T04:06:15.391Z,8.63
2018-09-09T04:08:44.951Z,9.57
2018-09-09T04:11:14.699Z,6.07
2018-09-09T04:13:47.593Z,11.87
2018-09-09T04:16:17.526Z,14.20
2018-09-09T04:18:47.817Z,9.50
2018-09-09T04:21:17.753Z,9.23
2018-09-09T04:23:47.388Z,9.93
2018-09-09T04:26:17.390Z,10.00
2018-09-09T04:28:47.300Z,9.47
2018-09-09T04:31:17.116Z,9.27
2018-09-09T04:33:46.693Z,10.30
2018-09-09T04:36:16.737Z,9.73
2018-09-09T04:38:46.424Z,9.37
2018-09-09T04:41:16.612Z,10.70
2018-09-09T04:43:46.549Z,11.57
2018-09-09T04:46:16.439Z,9.73
2018-09-09T04:48:46.217Z,9.50
2018-09-09T04:51:16.037Z,11.20
2018-09-09T04:53:46.249Z,10.10
2018-09-09T04:56:16.243Z,9.90
2018-09-09T04:58:47.702Z,9.93
2018-09-09T05:01:17.647Z,9.57
2018-09-09T05:03:47.205Z,8.40
2018-09-09T05:06:16.602Z,10.83
2018-09-09T05:08:46.087Z,9.10
2018-09-09T05:11:16.547Z,9.37
2018-09-09T05:13:46.243Z,10.37
2018-09-09T05:16:15.977Z,10.37
2018-09-09T05:18:45.470Z,8.17
2018-09-09T05:21:15.061Z,10.17
2018-09-09T05:23:44.835Z,16.10
2018-09-09T05:26:14.734Z,8.63
2018-09-09T05:28:44.336Z,10.17
2018-09-09T05:31:14.016Z,11.90
2018-09-09T05:33:43.866Z,9.90
2018-09-09T05:36:13.842Z,17.87
2018-09-09T05:38:43.671Z,10.07
2018-09-09T05:41:13.340Z,9.97
2018-09-09T05:43:42.926Z,11.43
2018-09-09T05:46:12.678Z,10.87
2018-09-09T05:48:42.199Z,13.00
2018-09-09T05:51:11.925Z,10.33
2018-09-09T05:53:41.720Z,15.97
2018-09-09T05:56:11.223Z,15.47
2018-09-09T05:58:41.081Z,14.17
2018-09-09T06:01:10.450Z,13.20
2018-09-09T06:03:40.355Z,15.23
2018-09-09T06:06:10.242Z,14.87
2018-09-09T06:08:39.989Z,12.50
2018-09-09T06:11:09.670Z,10.83
2018-09-09T06:13:39.318Z,10.43
2018-09-09T06:16:09.005Z,9.60
2018-09-09T06:18:39.411Z,10.70
2018-09-09T06:21:09.036Z,8.83
2018-09-09T06:23:38.696Z,9.27
2018-09-09T06:26:08.246Z,9.47
2018-09-09T06:28:37.958Z,9.03
2018-09-09T06:31:07.736Z,9.27
2018-09-09T06:33:37.753Z,8.30
2018-09-09T06:36:07.769Z,7.73
2018-09-09T06:38:37.328Z,8.47
2018-09-09T06:41:07.135Z,7.73
2018-09-09T06:43:36.798Z,8.10
2018-09-09T06:46:06.522Z,6.87
2018-09-09T06:48:36.091Z,6.50
2018-09-09T06:51:05.532Z,8.50
2018-09-09T06:53:35.027Z,6.87
2018-09-09T06:56:04.691Z,7.63
2018-09-09T06:58:34.620Z,7.43
2018-09-09T07:01:05.420Z,6.13
2018-09-09T07:03:35.251Z,7.00
2018-09-09T07:06:04.901Z,6.80
2018-09-09T07:08:34.693Z,6.70
2018-09-09T07:11:04.582Z,6.67
2018-09-09T07:13:34.095Z,6.10
2018-09-09T07:16:03.920Z,6.40
2018-09-09T07:18:33.630Z,6.17
2018-09-09T07:21:03.283Z,5.87
2018-09-09T07:23:33.075Z,5.57
2018-09-09T07:26:02.862Z,5.90
2018-09-09T07:28:32.830Z,6.30
2018-09-09T07:31:02.563Z,5.40
2018-09-09T07:33:32.480Z,6.07
2018-09-09T07:36:02.269Z,4.97
2018-09-09T07:38:32.001Z,5.30
2018-09-09T07:41:01.641Z,5.80
2018-09-09T07:43:33.519Z,5.73
2018-09-09T07:46:03.466Z,5.27
2018-09-09T07:48:32.961Z,5.73
2018-09-09T07:51:02.614Z,6.07
2018-09-09T07:53:32.157Z,7.10
2018-09-09T07:56:02.201Z,7.50
2018-09-09T07:58:32.206Z,5.27
2018-09-09T08:01:02.061Z,5.37
2018-09-09T08:03:31.802Z,4.90
2018-09-09T08:06:01.290Z,5.10
2018-09-09T08:08:31.072Z,5.83
2018-09-09T08:11:00.592Z,4.80
2018-09-09T08:13:30.180Z,6.00
2018-09-09T08:16:00.123Z,5.07
2018-09-09T08:18:30.037Z,6.57
2018-09-09T08:21:00.382Z,5.97
2018-09-09T08:23:30.590Z,5.70
2018-09-09T08:26:00.718Z,5.93
2018-09-09T08:28:30.638Z,5.03
2018-09-09T08:31:00.572Z,4.50
2018-09-09T08:33:30.532Z,4.47
2018-09-09T08:36:00.105Z,5.10
2018-09-09T08:38:29.999Z,4.63
2018-09-09T08:40:59.488Z,4.57
2018-09-09T08:43:29.329Z,4.47
2018-09-09T08:46:02.381Z,4.60
2018-09-09T08:48:32.738Z,5.50
2018-09-09T08:51:02.568Z,5.67
2018-09-09T08:53:32.256Z,4.07
2018-09-09T08:56:01.999Z,3.63
2018-09-09T08:58:31.763Z,3.90
2018-09-09T09:01:01.495Z,4.10
2018-09-09T09:03:30.973Z,3.37
2018-09-09T09:06:00.539Z,4.00
2018-09-09T09:08:30.249Z,4.67
2018-09-09T09:10:59.945Z,3.57
2018-09-09T09:13:29.629Z,4.73
2018-09-09T09:15:59.445Z,4.57
2018-09-09T09:18:28.917Z,4.77
2018-09-09T09:21:00.762Z,4.87
2018-09-09T09:23:30.855Z,4.77
2018-09-09T09:26:00.881Z,4.10
2018-09-09T09:28:30.532Z,5.00
2018-09-09T09:31:00.174Z,4.70
2018-09-09T09:33:29.924Z,4.37
2018-09-09T09:35:59.516Z,4.40
2018-09-09T09:38:29.480Z,3.43
2018-09-09T09:40:59.079Z,4.60
2018-09-09T09:43:28.376Z,4.50
2018-09-09T09:45:58.153Z,4.57
2018-09-09T09:48:27.728Z,4.60
2018-09-09T09:50:57.509Z,4.50
2018-09-09T09:53:27.942Z,4.70
2018-09-09T09:55:58.129Z,5.10
2018-09-09T09:58:27.828Z,5.30
2018-09-09T10:01:01.115Z,5.27
2018-09-09T10:03:30.956Z,4.90
2018-09-09T10:06:01.098Z,4.63
2018-09-09T10:08:30.535Z,4.33
2018-09-09T10:11:00.601Z,5.53
2018-09-09T10:13:30.723Z,6.33
2018-09-09T10:16:00.302Z,6.60
2018-09-09T10:18:29.761Z,9.03
2018-09-09T10:20:59.698Z,5.47
2018-09-09T10:23:29.075Z,6.53
2018-09-09T10:25:59.329Z,5.50
2018-09-09T10:28:28.773Z,5.43
2018-09-09T10:30:58.413Z,6.30
2018-09-09T10:33:27.877Z,6.80
2018-09-09T10:35:57.547Z,5.67
2018-09-09T10:38:27.208Z,5.80
2018-09-09T10:40:56.917Z,6.03
2018-09-09T10:43:27.315Z,5.70
2018-09-09T10:45:57.031Z,7.27
2018-09-09T10:48:27.040Z,5.33
2018-09-09T10:50:56.766Z,6.53
2018-09-09T10:53:26.455Z,4.70
2018-09-09T10:55:55.994Z,4.57
2018-09-09T10:58:25.691Z,4.13
2018-09-09T11:00:55.243Z,4.67
2018-09-09T11:03:24.783Z,5.03
2018-09-09T11:05:54.473Z,6.23
2018-09-09T11:08:24.056Z,4.43
2018-09-09T11:10:53.735Z,4.33
2018-09-09T11:13:25.195Z,3.60
2018-09-09T11:15:55.473Z,3.73
2018-09-09T11:18:25.797Z,3.80
2018-09-09T11:20:55.438Z,4.07
2018-09-09T11:23:25.251Z,4.90
2018-09-09T11:25:55.022Z,3.80
2018-09-09T11:28:24.510Z,3.33
2018-09-09T11:30:54.269Z,3.30
2018-09-09T11:33:23.912Z,4.00
2018-09-09T11:35:53.670Z,3.77
2018-09-09T11:38:23.616Z,3.77
2018-09-09T11:40:54.033Z,3.20
2018-09-09T11:43:23.430Z,2.83
2018-09-09T11:45:52.982Z,3.10
2018-09-09T11:48:22.477Z,3.57
2018-09-09T11:50:52.610Z,3.90
2018-09-09T11:53:22.277Z,3.03
2018-09-09T11:55:51.906Z,2.70
2018-09-09T11:58:21.366Z,3.10
2018-09-09T12:00:50.824Z,2.67
2018-09-09T12:03:20.308Z,3.50
2018-09-09T12:05:49.723Z,3.73
2018-09-09T12:08:19.535Z,3.30
2018-09-09T12:10:49.506Z,3.27
2018-09-09T12:13:19.852Z,3.30
2018-09-09T12:15:51.450Z,3.03
2018-09-09T12:18:22.535Z,3.20
2018-09-09T12:20:52.120Z,3.00
2018-09-09T12:23:21.858Z,2.60
2018-09-09T12:25:51.970Z,2.80
2018-09-09T12:28:23.381Z,2.90
2018-09-09T12:30:53.299Z,3.07
2018-09-09T12:33:24.502Z,2.40
2018-09-09T12:35:54.120Z,2.30
2018-09-09T12:38:25.299Z,2.50
2018-09-09T12:40:55.085Z,2.63
2018-09-09T12:43:30.003Z,2.90
2018-09-09T12:46:04.749Z,2.47
2018-09-09T12:48:39.661Z,2.80
2018-09-09T12:51:09.704Z,2.60
2018-09-09T12:53:39.096Z,2.60
2018-09-09T12:56:09.479Z,2.37
2018-09-09T12:58:38.878Z,2.57
2018-09-09T13:01:08.672Z,2.20
2018-09-09T13:03:38.027Z,2.83
2018-09-09T13:06:07.802Z,2.03
2018-09-09T13:08:37.758Z,2.40
2018-09-09T13:11:07.282Z,2.17
2018-09-09T13:13:36.851Z,1.93
2018-09-09T13:16:07.020Z,2.27
2018-09-09T13:18:37.468Z,2.10
2018-09-09T13:21:07.648Z,2.10
2018-09-09T13:23:37.394Z,2.00
2018-09-09T13:26:07.080Z,1.83
2018-09-09T13:28:36.715Z,1.80
2018-09-09T13:31:06.467Z,1.80
2018-09-09T13:33:36.167Z,2.10
2018-09-09T13:36:05.828Z,2.10
2018-09-09T13:38:35.415Z,2.17
2018-09-09T13:41:04.844Z,1.77
2018-09-09T13:43:34.396Z,2.27
2018-09-09T13:46:04.052Z,1.97
2018-09-09T13:48:33.739Z,1.83
2018-09-09T13:51:03.307Z,2.07
2018-09-09T13:53:33.386Z,2.07
2018-09-09T13:56:03.215Z,1.80
2018-09-09T13:58:32.909Z,1.93
2018-09-09T14:01:02.626Z,1.70
2018-09-09T14:03:32.400Z,1.70
2018-09-09T14:06:03.041Z,1.50
2018-09-09T14:08:32.878Z,2.10
2018-09-09T14:11:02.450Z,1.60
2018-09-09T14:13:31.991Z,2.00
2018-09-09T14:16:01.822Z,1.63
2018-09-09T14:18:31.613Z,1.37
2018-09-09T14:21:01.102Z,1.70
2018-09-09T14:23:30.679Z,1.53
2018-09-09T14:26:00.452Z,1.50
2018-09-09T14:28:30.137Z,1.57
2018-09-09T14:31:00.113Z,1.60
2018-09-09T14:33:29.902Z,1.57
2018-09-09T14:36:00.403Z,1.60
2018-09-09T14:38:30.821Z,1.23
2018-09-09T14:41:01.123Z,1.27
2018-09-09T14:43:30.802Z,1.50
2018-09-09T14:46:00.917Z,1.10
2018-09-09T14:48:32.189Z,1.60
2018-09-09T14:51:01.943Z,1.57
2018-09-09T14:53:31.873Z,1.50
2018-09-09T14:56:01.303Z,1.47
2018-09-09T14:58:31.403Z,1.60
2018-09-09T15:01:01.145Z,1.53
2018-09-09T15:03:30.757Z,1.50
2018-09-09T15:06:00.411Z,1.57
2018-09-09T15:08:30.134Z,1.40
2018-09-09T15:10:59.880Z,2.00
2018-09-09T15:13:29.620Z,2.03
2018-09-09T15:15:59.078Z,1.80
2018-09-09T15:18:28.561Z,2.03
2018-09-09T15:20:58.224Z,2.47
2018-09-09T15:23:27.786Z,2.30
2018-09-09T15:25:57.531Z,2.10
2018-09-09T15:28:27.311Z,2.70
2018-09-09T15:30:57.185Z,2.60
2018-09-09T15:33:26.679Z,2.23
2018-09-09T15:35:55.990Z,4.77
2018-09-09T15:38:26.008Z,3.00
2018-09-09T15:40:56.073Z,4.00
2018-09-09T15:43:26.055Z,2.27
2018-09-09T15:45:55.818Z,2.33
2018-09-09T15:48:25.439Z,2.13
2018-09-09T15:50:57.823Z,2.83
2018-09-09T15:53:27.493Z,2.90
2018-09-09T15:55:57.044Z,4.17
2018-09-09T15:58:26.920Z,3.27
2018-09-09T16:00:56.356Z,2.50
2018-09-09T16:03:26.097Z,3.20
2018-09-09T16:05:55.577Z,4.70
2018-09-09T16:08:24.993Z,3.73
2018-09-09T16:10:54.781Z,3.17
2018-09-09T16:13:24.739Z,3.20
2018-09-09T16:15:54.789Z,2.37
2018-09-09T16:18:24.140Z,1.90
2018-09-09T16:20:53.835Z,2.10
2018-09-09T16:23:23.466Z,2.43
2018-09-09T16:25:52.843Z,3.00
2018-09-09T16:28:23.485Z,2.67
2018-09-09T16:30:52.889Z,3.43
2018-09-09T16:33:22.656Z,3.10
2018-09-09T16:35:52.478Z,24.20
2018-09-09T16:38:22.699Z,60.33
2018-09-09T16:40:52.736Z,23.93
2018-09-09T16:43:22.316Z,7.47
2018-09-09T16:45:52.011Z,4.03
2018-09-09T16:48:21.594Z,6.70
2018-09-09T16:50:51.206Z,3.67
2018-09-09T16:53:22.893Z,3.20
2018-09-09T16:55:52.456Z,3.80
2018-09-09T16:58:22.728Z,3.10
2018-09-09T17:00:52.390Z,4.27
2018-09-09T17:03:22.057Z,4.57
2018-09-09T17:05:53.287Z,4.53
2018-09-09T17:08:22.737Z,4.13
2018-09-09T17:10:52.502Z,3.40
2018-09-09T17:13:21.942Z,2.93
2018-09-09T17:15:51.859Z,2.50
2018-09-09T17:18:21.448Z,2.87
2018-09-09T17:20:51.077Z,2.77
2018-09-09T17:23:20.791Z,2.93
2018-09-09T17:25:51.192Z,3.20
2018-09-09T17:28:21.218Z,3.00
2018-09-09T17:30:50.944Z,2.80
2018-09-09T17:33:20.739Z,2.60
2018-09-09T17:35:51.908Z,2.07
2018-09-09T17:38:21.402Z,2.50
2018-09-09T17:40:51.148Z,2.43
2018-09-09T17:43:20.714Z,2.60
2018-09-09T17:45:50.273Z,2.17
2018-09-09T17:48:19.737Z,2.53
2018-09-09T17:50:49.091Z,2.40
2018-09-09T17:53:19.087Z,2.53
2018-09-09T17:55:48.601Z,2.40
2018-09-09T17:58:17.955Z,2.23
2018-09-09T18:00:49.343Z,2.40
2018-09-09T18:03:18.574Z,2.30
2018-09-09T18:05:48.111Z,2.50
2018-09-09T18:08:17.554Z,2.20
2018-09-09T18:10:47.444Z,3.23
2018-09-09T18:13:17.932Z,2.67
2018-09-09T18:15:48.225Z,2.90
2018-09-09T18:18:18.422Z,3.27
2018-09-09T18:20:48.112Z,2.97
2018-09-09T18:23:17.478Z,3.27
2018-09-09T18:25:47.047Z,2.60
2018-09-09T18:28:16.553Z,3.17
2018-09-09T18:30:46.052Z,3.10
2018-09-09T18:33:15.581Z,2.93
2018-09-09T18:35:45.675Z,3.30
2018-09-09T18:38:15.292Z,2.90
2018-09-09T18:40:44.761Z,3.00
2018-09-09T18:43:14.179Z,3.20
2018-09-09T18:45:43.574Z,3.47
2018-09-09T18:48:14.138Z,3.00
2018-09-09T18:50:43.896Z,3.03
2018-09-09T18:53:13.494Z,2.77
2018-09-09T18:55:42.933Z,3.17
2018-09-09T18:58:12.412Z,3.70
2018-09-09T19:00:42.037Z,2.90
2018-09-09T19:03:11.423Z,2.67
2018-09-09T19:05:40.666Z,2.97
2018-09-09T19:08:10.334Z,2.57
2018-09-09T19:10:39.731Z,2.83
2018-09-09T19:13:09.423Z,3.10
2018-09-09T19:15:38.911Z,3.27
2018-09-09T19:18:08.731Z,3.00
2018-09-09T19:20:38.502Z,3.30
2018-09-09T19:23:08.193Z,2.90
2018-09-09T19:25:38.746Z,2.77
2018-09-09T19:28:08.040Z,2.67
2018-09-09T19:30:37.382Z,2.60
2018-09-09T19:33:07.287Z,2.57
2018-09-09T19:35:36.779Z,2.43
2018-09-09T19:38:06.357Z,2.70
2018-09-09T19:40:35.855Z,2.80
2018-09-09T19:43:05.554Z,3.17
2018-09-09T19:45:35.037Z,2.50
2018-09-09T19:48:04.528Z,2.40
2018-09-09T19:50:33.971Z,2.77
2018-09-09T19:53:03.706Z,2.40
2018-09-09T19:55:33.138Z,2.37
2018-09-09T19:58:02.778Z,2.90
2018-09-09T20:00:32.372Z,2.83
2018-09-09T20:03:01.757Z,3.10
2018-09-09T20:05:31.173Z,2.80
2018-09-09T20:08:00.692Z,2.80
2018-09-09T20:10:30.185Z,2.90
2018-09-09T20:12:59.596Z,2.63
2018-09-09T20:15:28.823Z,2.80
2018-09-09T20:17:58.223Z,2.50
2018-09-09T20:20:27.792Z,2.83
2018-09-09T20:22:57.497Z,3.07
2018-09-09T20:25:26.842Z,2.43
2018-09-09T20:27:59.190Z,3.10
2018-09-09T20:30:30.641Z,2.60
2018-09-09T20:33:00.255Z,3.13
2018-09-09T20:35:29.868Z,3.40
2018-09-09T20:37:59.543Z,2.80
2018-09-09T20:40:29.384Z,2.80
2018-09-09T20:42:58.941Z,3.23
2018-09-09T20:45:28.461Z,3.60
2018-09-09T20:47:57.877Z,2.77
2018-09-09T20:50:27.401Z,2.97
2018-09-09T20:52:57.037Z,2.80
2018-09-09T20:55:26.493Z,3.43
2018-09-09T20:57:55.918Z,2.90
2018-09-09T21:00:25.600Z,2.43
2018-09-09T21:02:55.129Z,2.87
2018-09-09T21:05:24.838Z,3.40
2018-09-09T21:07:54.357Z,2.70
2018-09-09T21:10:26.738Z,3.33
2018-09-09T21:12:56.267Z,2.80
2018-09-09T21:15:25.845Z,3.30
2018-09-09T21:17:55.143Z,2.83
2018-09-09T21:20:24.543Z,2.43
2018-09-09T21:22:54.089Z,2.53
2018-09-09T21:25:23.664Z,3.07
2018-09-09T21:27:53.245Z,3.30
2018-09-09T21:30:22.913Z,2.57
2018-09-09T21:32:52.438Z,2.40
2018-09-09T21:35:22.141Z,2.83
2018-09-09T21:37:51.626Z,3.27
2018-09-09T21:40:21.154Z,2.93
2018-09-09T21:42:50.488Z,3.10
2018-09-09T21:45:20.241Z,2.97
2018-09-09T21:47:49.724Z,2.90
2018-09-09T21:50:19.401Z,2.63
2018-09-09T21:52:48.939Z,2.93
2018-09-09T21:55:18.974Z,3.40
2018-09-09T21:57:48.279Z,3.60
2018-09-09T22:00:17.859Z,2.90
2018-09-09T22:02:47.413Z,3.27
2018-09-09T22:05:16.798Z,3.30
2018-09-09T22:07:46.274Z,3.30
2018-09-09T22:10:15.991Z,3.10
2018-09-09T22:12:45.528Z,3.30
2018-09-09T22:15:14.913Z,3.33
2018-09-09T22:17:44.606Z,2.87
2018-09-09T22:20:14.242Z,3.10
2018-09-09T22:22:44.007Z,3.27
2018-09-09T22:25:13.696Z,3.40
2018-09-09T22:27:43.223Z,3.57
2018-09-09T22:30:12.862Z,3.30
2018-09-09T22:32:42.529Z,3.87
2018-09-09T22:35:12.455Z,3.50
2018-09-09T22:37:42.597Z,3.53
2018-09-09T22:40:12.188Z,3.13
2018-09-09T22:42:41.921Z,3.67
2018-09-09T22:45:11.816Z,2.93
2018-09-09T22:47:41.342Z,2.93
2018-09-09T22:50:11.209Z,3.63
2018-09-09T22:52:40.941Z,3.13
2018-09-09T22:55:10.498Z,3.20
2018-09-09T22:57:40.428Z,4.07
2018-09-09T23:00:10.187Z,3.73
2018-09-09T23:02:40.036Z,4.07
2018-09-09T23:05:09.845Z,4.00
2018-09-09T23:07:39.536Z,2.63
2018-09-09T23:10:09.037Z,3.80
2018-09-09T23:12:38.796Z,3.47
2018-09-09T23:15:08.778Z,3.27
2018-09-09T23:17:38.275Z,3.27
2018-09-09T23:20:09.104Z,3.60
2018-09-09T23:22:38.934Z,3.47
2018-09-09T23:25:08.678Z,3.50
2018-09-09T23:27:38.141Z,3.57
2018-09-09T23:30:07.542Z,3.97
2018-09-09T23:32:37.080Z,3.77
2018-09-09T23:35:06.859Z,3.97
2018-09-09T23:37:36.510Z,3.37
2018-09-09T23:40:06.118Z,3.20
2018-09-09T23:42:35.672Z,3.57
2018-09-09T23:45:05.787Z,3.77
2018-09-09T23:47:36.134Z,3.50
2018-09-09T23:50:05.900Z,2.83
2018-09-09T23:52:35.544Z,4.30
2018-09-09T23:55:06.022Z,2.93
2018-09-09T23:57:36.967Z,2.80
